sensor_id;sensor_type;location;lat;lon;timestamp;P1;durP1;ratioP1;P2;durP2;ratioP2
49237;SDS011;35069;47.906;1.892;2023-02-12T00:02:23;21.45;;;13.52;;
49237;SDS011;35069;47.906;1.892;2023-02-12T00:04:49;24.05;;;14.27;;
49237;SDS011;35069;47.906;1.892;2023-02-12T00:07:14;21.23;;;13.82;;
49237;SDS011;35069;47.906;1.892;2023-02-12T00:09:40;25.55;;;14.32;;
49237;SDS011;35069;47.906;1.892;2023-02-12T00:12:06;19.52;;;13.85;;
49237;SDS011;35069;47.906;1.892;2023-02-12T00:14:31;20.92;;;14.43;;
49237;SDS011;35069;47.906;1.892;2023-02-12T00:16:58;21.50;;;13.63;;
49237;SDS011;35069;47.906;1.892;2023-02-12T00:19:24;19.98;;;14.38;;
49237;SDS011;35069;47.906;1.892;2023-02-12T00:21:50;21.45;;;14.60;;
49237;SDS011;35069;47.906;1.892;2023-02-12T00:24:15;19.02;;;13.63;;
49237;SDS011;35069;47.906;1.892;2023-02-12T00:26:41;22.10;;;14.23;;
49237;SDS011;35069;47.906;1.892;2023-02-12T00:29:06;19.67;;;13.73;;
49237;SDS011;35069;47.906;1.892;2023-02-12T00:31:33;17.35;;;11.93;;
49237;SDS011;35069;47.906;1.892;2023-02-12T00:33:59;17.60;;;12.20;;
49237;SDS011;35069;47.906;1.892;2023-02-12T00:36:27;21.10;;;13.70;;
49237;SDS011;35069;47.906;1.892;2023-02-12T00:38:54;18.90;;;13.27;;
49237;SDS011;35069;47.906;1.892;2023-02-12T00:41:21;22.50;;;13.52;;
49237;SDS011;35069;47.906;1.892;2023-02-12T00:43:48;20.45;;;12.93;;
49237;SDS011;35069;47.906;1.892;2023-02-12T00:46:14;22.27;;;13.32;;
49237;SDS011;35069;47.906;1.892;2023-02-12T00:48:40;21.20;;;12.88;;
49237;SDS011;35069;47.906;1.892;2023-02-12T00:51:06;24.17;;;13.48;;
49237;SDS011;35069;47.906;1.892;2023-02-12T00:53:32;20.70;;;13.70;;
49237;SDS011;35069;47.906;1.892;2023-02-12T00:55:58;21.13;;;14.13;;
49237;SDS011;35069;47.906;1.892;2023-02-12T00:58:24;20.33;;;13.80;;
49237;SDS011;35069;47.906;1.892;2023-02-12T01:00:49;18.70;;;12.93;;
49237;SDS011;35069;47.906;1.892;2023-02-12T01:03:15;20.25;;;13.00;;
49237;SDS011;35069;47.906;1.892;2023-02-12T01:05:41;21.88;;;12.38;;
49237;SDS011;35069;47.906;1.892;2023-02-12T01:08:07;17.00;;;11.50;;
49237;SDS011;35069;47.906;1.892;2023-02-12T01:10:38;22.92;;;13.18;;
49237;SDS011;35069;47.906;1.892;2023-02-12T01:13:04;19.88;;;12.73;;
49237;SDS011;35069;47.906;1.892;2023-02-12T01:15:30;18.45;;;12.27;;
49237;SDS011;35069;47.906;1.892;2023-02-12T01:17:55;20.27;;;13.68;;
49237;SDS011;35069;47.906;1.892;2023-02-12T01:20:22;20.48;;;12.75;;
49237;SDS011;35069;47.906;1.892;2023-02-12T01:22:48;21.88;;;12.93;;
49237;SDS011;35069;47.906;1.892;2023-02-12T01:25:15;17.55;;;11.95;;
49237;SDS011;35069;47.906;1.892;2023-02-12T01:27:41;23.33;;;12.43;;
49237;SDS011;35069;47.906;1.892;2023-02-12T01:30:09;16.60;;;11.63;;
49237;SDS011;35069;47.906;1.892;2023-02-12T01:32:36;20.40;;;12.32;;
49237;SDS011;35069;47.906;1.892;2023-02-12T01:35:03;18.77;;;12.43;;
49237;SDS011;35069;47.906;1.892;2023-02-12T01:37:29;16.13;;;10.40;;
49237;SDS011;35069;47.906;1.892;2023-02-12T01:39:55;19.27;;;11.20;;
49237;SDS011;35069;47.906;1.892;2023-02-12T01:42:21;15.23;;;11.32;;
49237;SDS011;35069;47.906;1.892;2023-02-12T01:47:37;14.32;;;10.05;;
49237;SDS011;35069;47.906;1.892;2023-02-12T01:50:07;16.02;;;10.65;;
49237;SDS011;35069;47.906;1.892;2023-02-12T01:52:35;17.70;;;10.55;;
49237;SDS011;35069;47.906;1.892;2023-02-12T01:55:04;16.15;;;10.88;;
49237;SDS011;35069;47.906;1.892;2023-02-12T01:57:33;21.05;;;12.48;;
49237;SDS011;35069;47.906;1.892;2023-02-12T02:00:03;15.88;;;11.23;;
49237;SDS011;35069;47.906;1.892;2023-02-12T02:02:31;16.63;;;11.20;;
49237;SDS011;35069;47.906;1.892;2023-02-12T02:04:59;15.50;;;11.15;;
49237;SDS011;35069;47.906;1.892;2023-02-12T02:07:27;16.08;;;10.57;;
49237;SDS011;35069;47.906;1.892;2023-02-12T02:09:53;17.73;;;10.60;;
49237;SDS011;35069;47.906;1.892;2023-02-12T02:12:20;15.40;;;9.65;;
49237;SDS011;35069;47.906;1.892;2023-02-12T02:15:04;21.25;;;11.48;;
49237;SDS011;35069;47.906;1.892;2023-02-12T02:17:50;14.45;;;9.77;;
49237;SDS011;35069;47.906;1.892;2023-02-12T02:20:37;18.85;;;10.60;;
49237;SDS011;35069;47.906;1.892;2023-02-12T02:23:38;14.65;;;9.95;;
49237;SDS011;35069;47.906;1.892;2023-02-12T02:29:08;11.93;;;8.18;;
49237;SDS011;35069;47.906;1.892;2023-02-12T02:37:14;16.17;;;10.07;;
49237;SDS011;35069;47.906;1.892;2023-02-12T02:42:28;15.82;;;9.07;;
49237;SDS011;35069;47.906;1.892;2023-02-12T02:45:01;14.55;;;8.73;;
49237;SDS011;35069;47.906;1.892;2023-02-12T02:47:37;13.60;;;7.40;;
49237;SDS011;35069;47.906;1.892;2023-02-12T02:50:07;15.73;;;9.77;;
49237;SDS011;35069;47.906;1.892;2023-02-12T02:52:44;13.32;;;8.55;;
49237;SDS011;35069;47.906;1.892;2023-02-12T02:55:17;11.68;;;7.93;;
49237;SDS011;35069;47.906;1.892;2023-02-12T02:57:56;14.20;;;7.95;;
49237;SDS011;35069;47.906;1.892;2023-02-12T03:00:32;10.57;;;6.97;;
49237;SDS011;35069;47.906;1.892;2023-02-12T03:03:10;14.40;;;8.82;;
49237;SDS011;35069;47.906;1.892;2023-02-12T03:06:03;14.13;;;8.57;;
49237;SDS011;35069;47.906;1.892;2023-02-12T03:08:51;13.52;;;8.00;;
49237;SDS011;35069;47.906;1.892;2023-02-12T03:11:23;11.25;;;7.45;;
49237;SDS011;35069;47.906;1.892;2023-02-12T03:16:22;14.75;;;8.07;;
49237;SDS011;35069;47.906;1.892;2023-02-12T03:18:55;12.90;;;7.65;;
49237;SDS011;35069;47.906;1.892;2023-02-12T03:21:29;17.10;;;9.70;;
49237;SDS011;35069;47.906;1.892;2023-02-12T03:24:12;11.80;;;7.75;;
49237;SDS011;35069;47.906;1.892;2023-02-12T03:26:50;11.30;;;8.68;;
49237;SDS011;35069;47.906;1.892;2023-02-12T03:29:21;13.57;;;9.23;;
49237;SDS011;35069;47.906;1.892;2023-02-12T03:51:34;11.07;;;8.57;;
49237;SDS011;35069;47.906;1.892;2023-02-12T03:54:03;15.38;;;8.13;;
49237;SDS011;35069;47.906;1.892;2023-02-12T03:59:20;14.52;;;8.65;;
49237;SDS011;35069;47.906;1.892;2023-02-12T04:01:47;12.10;;;8.10;;
49237;SDS011;35069;47.906;1.892;2023-02-12T04:04:15;13.70;;;8.52;;
49237;SDS011;35069;47.906;1.892;2023-02-12T04:06:41;13.68;;;8.75;;
49237;SDS011;35069;47.906;1.892;2023-02-12T04:09:09;13.70;;;8.75;;
49237;SDS011;35069;47.906;1.892;2023-02-12T04:16:53;12.15;;;9.15;;
49237;SDS011;35069;47.906;1.892;2023-02-12T04:19:29;14.48;;;8.30;;
49237;SDS011;35069;47.906;1.892;2023-02-12T04:24:49;16.63;;;10.18;;
49237;SDS011;35069;47.906;1.892;2023-02-12T04:27:54;13.25;;;8.50;;
49237;SDS011;35069;47.906;1.892;2023-02-12T04:30:43;12.48;;;9.23;;
49237;SDS011;35069;47.906;1.892;2023-02-12T04:33:10;11.48;;;8.43;;
49237;SDS011;35069;47.906;1.892;2023-02-12T04:35:58;17.42;;;10.57;;
49237;SDS011;35069;47.906;1.892;2023-02-12T04:38:39;14.43;;;8.48;;
49237;SDS011;35069;47.906;1.892;2023-02-12T04:41:10;15.07;;;9.48;;
49237;SDS011;35069;47.906;1.892;2023-02-12T04:43:36;13.63;;;9.18;;
49237;SDS011;35069;47.906;1.892;2023-02-12T04:46:03;13.43;;;9.13;;
49237;SDS011;35069;47.906;1.892;2023-02-12T04:48:30;15.68;;;9.82;;
49237;SDS011;35069;47.906;1.892;2023-02-12T04:50:56;15.90;;;10.35;;
49237;SDS011;35069;47.906;1.892;2023-02-12T04:53:21;15.55;;;9.65;;
49237;SDS011;35069;47.906;1.892;2023-02-12T04:55:47;16.00;;;9.38;;
49237;SDS011;35069;47.906;1.892;2023-02-12T04:58:14;18.13;;;10.63;;
49237;SDS011;35069;47.906;1.892;2023-02-12T05:00:40;15.38;;;10.02;;
49237;SDS011;35069;47.906;1.892;2023-02-12T05:03:06;14.10;;;9.15;;
49237;SDS011;35069;47.906;1.892;2023-02-12T05:05:32;21.80;;;10.95;;
49237;SDS011;35069;47.906;1.892;2023-02-12T05:07:57;18.38;;;10.68;;
49237;SDS011;35069;47.906;1.892;2023-02-12T05:10:23;17.85;;;12.13;;
49237;SDS011;35069;47.906;1.892;2023-02-12T05:12:52;17.15;;;10.80;;
49237;SDS011;35069;47.906;1.892;2023-02-12T05:15:18;14.55;;;11.15;;
49237;SDS011;35069;47.906;1.892;2023-02-12T05:17:44;17.88;;;11.18;;
49237;SDS011;35069;47.906;1.892;2023-02-12T05:20:11;17.58;;;11.50;;
49237;SDS011;35069;47.906;1.892;2023-02-12T05:22:37;19.77;;;11.43;;
49237;SDS011;35069;47.906;1.892;2023-02-12T05:25:03;18.42;;;11.63;;
49237;SDS011;35069;47.906;1.892;2023-02-12T05:27:29;19.40;;;11.70;;
49237;SDS011;35069;47.906;1.892;2023-02-12T05:29:56;18.50;;;11.80;;
49237;SDS011;35069;47.906;1.892;2023-02-12T05:32:22;19.17;;;11.35;;
49237;SDS011;35069;47.906;1.892;2023-02-12T05:34:48;18.50;;;11.65;;
49237;SDS011;35069;47.906;1.892;2023-02-12T05:37:13;19.10;;;11.73;;
49237;SDS011;35069;47.906;1.892;2023-02-12T05:39:39;18.88;;;12.20;;
49237;SDS011;35069;47.906;1.892;2023-02-12T05:42:05;19.10;;;13.20;;
49237;SDS011;35069;47.906;1.892;2023-02-12T05:44:31;18.95;;;11.20;;
49237;SDS011;35069;47.906;1.892;2023-02-12T05:46:56;19.77;;;12.48;;
49237;SDS011;35069;47.906;1.892;2023-02-12T05:49:22;23.65;;;12.73;;
49237;SDS011;35069;47.906;1.892;2023-02-12T05:51:48;17.33;;;12.23;;
49237;SDS011;35069;47.906;1.892;2023-02-12T05:54:14;19.80;;;11.88;;
49237;SDS011;35069;47.906;1.892;2023-02-12T05:56:46;16.35;;;11.30;;
49237;SDS011;35069;47.906;1.892;2023-02-12T05:59:15;21.20;;;12.30;;
49237;SDS011;35069;47.906;1.892;2023-02-12T06:01:43;17.98;;;12.13;;
49237;SDS011;35069;47.906;1.892;2023-02-12T06:04:12;22.05;;;12.20;;
49237;SDS011;35069;47.906;1.892;2023-02-12T06:06:40;16.80;;;12.57;;
49237;SDS011;35069;47.906;1.892;2023-02-12T06:09:06;19.25;;;13.00;;
49237;SDS011;35069;47.906;1.892;2023-02-12T06:11:33;21.83;;;12.15;;
49237;SDS011;35069;47.906;1.892;2023-02-12T06:14:00;18.77;;;10.98;;
49237;SDS011;35069;47.906;1.892;2023-02-12T06:16:30;21.35;;;12.85;;
49237;SDS011;35069;47.906;1.892;2023-02-12T06:18:57;25.33;;;13.05;;
49237;SDS011;35069;47.906;1.892;2023-02-12T06:21:25;21.25;;;12.13;;
49237;SDS011;35069;47.906;1.892;2023-02-12T06:23:50;18.10;;;12.02;;
49237;SDS011;35069;47.906;1.892;2023-02-12T06:26:17;18.77;;;12.27;;
49237;SDS011;35069;47.906;1.892;2023-02-12T06:28:43;26.08;;;13.25;;
49237;SDS011;35069;47.906;1.892;2023-02-12T06:31:29;21.35;;;12.68;;
49237;SDS011;35069;47.906;1.892;2023-02-12T06:33:56;21.73;;;13.25;;
49237;SDS011;35069;47.906;1.892;2023-02-12T06:36:24;21.80;;;13.25;;
49237;SDS011;35069;47.906;1.892;2023-02-12T06:38:50;22.42;;;13.35;;
49237;SDS011;35069;47.906;1.892;2023-02-12T06:41:16;19.08;;;11.98;;
49237;SDS011;35069;47.906;1.892;2023-02-12T06:43:42;25.65;;;13.95;;
49237;SDS011;35069;47.906;1.892;2023-02-12T06:46:08;23.05;;;13.38;;
49237;SDS011;35069;47.906;1.892;2023-02-12T06:48:34;22.42;;;13.35;;
49237;SDS011;35069;47.906;1.892;2023-02-12T06:51:18;21.23;;;12.07;;
49237;SDS011;35069;47.906;1.892;2023-02-12T06:53:45;18.98;;;12.15;;
49237;SDS011;35069;47.906;1.892;2023-02-12T06:56:12;19.83;;;13.85;;
49237;SDS011;35069;47.906;1.892;2023-02-12T06:58:38;21.10;;;13.13;;
49237;SDS011;35069;47.906;1.892;2023-02-12T07:03:38;20.20;;;12.75;;
49237;SDS011;35069;47.906;1.892;2023-02-12T07:06:04;15.93;;;12.55;;
49237;SDS011;35069;47.906;1.892;2023-02-12T07:08:30;17.70;;;11.57;;
49237;SDS011;35069;47.906;1.892;2023-02-12T07:10:56;22.10;;;13.52;;
49237;SDS011;35069;47.906;1.892;2023-02-12T07:13:21;18.05;;;11.43;;
49237;SDS011;35069;47.906;1.892;2023-02-12T07:15:47;20.20;;;11.30;;
49237;SDS011;35069;47.906;1.892;2023-02-12T07:18:13;18.13;;;11.55;;
49237;SDS011;35069;47.906;1.892;2023-02-12T07:20:38;21.75;;;11.80;;
49237;SDS011;35069;47.906;1.892;2023-02-12T07:23:04;18.02;;;11.57;;
49237;SDS011;35069;47.906;1.892;2023-02-12T07:25:29;15.15;;;10.50;;
49237;SDS011;35069;47.906;1.892;2023-02-12T07:27:55;17.65;;;11.98;;
49237;SDS011;35069;47.906;1.892;2023-02-12T07:30:21;17.15;;;11.25;;
49237;SDS011;35069;47.906;1.892;2023-02-12T07:32:46;18.95;;;11.15;;
49237;SDS011;35069;47.906;1.892;2023-02-12T07:35:12;21.55;;;12.32;;
49237;SDS011;35069;47.906;1.892;2023-02-12T07:37:37;20.10;;;12.57;;
49237;SDS011;35069;47.906;1.892;2023-02-12T07:40:03;21.08;;;12.52;;
49237;SDS011;35069;47.906;1.892;2023-02-12T07:42:29;20.80;;;12.00;;
49237;SDS011;35069;47.906;1.892;2023-02-12T07:44:55;17.60;;;12.50;;
49237;SDS011;35069;47.906;1.892;2023-02-12T07:47:20;20.15;;;12.90;;
49237;SDS011;35069;47.906;1.892;2023-02-12T07:49:46;18.88;;;11.90;;
49237;SDS011;35069;47.906;1.892;2023-02-12T07:52:11;22.42;;;12.23;;
49237;SDS011;35069;47.906;1.892;2023-02-12T07:54:37;17.77;;;11.95;;
49237;SDS011;35069;47.906;1.892;2023-02-12T07:57:02;18.27;;;11.32;;
49237;SDS011;35069;47.906;1.892;2023-02-12T07:59:28;20.98;;;12.75;;
49237;SDS011;35069;47.906;1.892;2023-02-12T08:01:54;18.52;;;10.45;;
49237;SDS011;35069;47.906;1.892;2023-02-12T08:04:21;20.50;;;12.60;;
49237;SDS011;35069;47.906;1.892;2023-02-12T08:06:49;21.80;;;12.65;;
49237;SDS011;35069;47.906;1.892;2023-02-12T08:09:17;21.85;;;13.00;;
49237;SDS011;35069;47.906;1.892;2023-02-12T08:11:45;18.25;;;12.65;;
49237;SDS011;35069;47.906;1.892;2023-02-12T08:14:12;23.13;;;13.77;;
49237;SDS011;35069;47.906;1.892;2023-02-12T08:16:40;21.77;;;12.35;;
49237;SDS011;35069;47.906;1.892;2023-02-12T08:19:06;20.70;;;13.65;;
49237;SDS011;35069;47.906;1.892;2023-02-12T08:21:32;24.92;;;14.07;;
49237;SDS011;35069;47.906;1.892;2023-02-12T08:23:58;21.55;;;14.38;;
49237;SDS011;35069;47.906;1.892;2023-02-12T08:29:00;20.75;;;13.85;;
49237;SDS011;35069;47.906;1.892;2023-02-12T08:31:34;25.35;;;14.10;;
49237;SDS011;35069;47.906;1.892;2023-02-12T08:34:02;23.98;;;13.50;;
49237;SDS011;35069;47.906;1.892;2023-02-12T08:36:30;23.60;;;14.60;;
49237;SDS011;35069;47.906;1.892;2023-02-12T08:39:04;18.70;;;13.20;;
49237;SDS011;35069;47.906;1.892;2023-02-12T08:41:32;22.23;;;13.07;;
49237;SDS011;35069;47.906;1.892;2023-02-12T08:43:59;19.20;;;13.25;;
49237;SDS011;35069;47.906;1.892;2023-02-12T08:46:27;20.38;;;13.70;;
49237;SDS011;35069;47.906;1.892;2023-02-12T08:48:55;22.13;;;13.40;;
49237;SDS011;35069;47.906;1.892;2023-02-12T08:51:27;24.00;;;13.52;;
49237;SDS011;35069;47.906;1.892;2023-02-12T08:53:58;22.98;;;14.00;;
49237;SDS011;35069;47.906;1.892;2023-02-12T08:56:26;24.35;;;12.50;;
49237;SDS011;35069;47.906;1.892;2023-02-12T08:58:54;23.38;;;14.00;;
49237;SDS011;35069;47.906;1.892;2023-02-12T09:01:23;24.08;;;15.40;;
49237;SDS011;35069;47.906;1.892;2023-02-12T09:03:49;23.05;;;13.93;;
49237;SDS011;35069;47.906;1.892;2023-02-12T09:06:16;76.18;;;34.53;;
49237;SDS011;35069;47.906;1.892;2023-02-12T09:08:44;28.58;;;16.65;;
49237;SDS011;35069;47.906;1.892;2023-02-12T09:11:11;24.52;;;14.85;;
49237;SDS011;35069;47.906;1.892;2023-02-12T09:13:37;26.17;;;14.80;;
49237;SDS011;35069;47.906;1.892;2023-02-12T09:16:04;25.40;;;15.23;;
49237;SDS011;35069;47.906;1.892;2023-02-12T09:18:31;23.65;;;13.85;;
49237;SDS011;35069;47.906;1.892;2023-02-12T09:21:04;25.48;;;14.90;;
49237;SDS011;35069;47.906;1.892;2023-02-12T09:23:35;27.80;;;16.80;;
49237;SDS011;35069;47.906;1.892;2023-02-12T09:26:05;26.88;;;16.30;;
49237;SDS011;35069;47.906;1.892;2023-02-12T09:28:33;32.88;;;16.48;;
49237;SDS011;35069;47.906;1.892;2023-02-12T09:31:03;29.20;;;16.05;;
49237;SDS011;35069;47.906;1.892;2023-02-12T09:33:30;28.58;;;15.48;;
49237;SDS011;35069;47.906;1.892;2023-02-12T09:35:59;30.33;;;16.85;;
49237;SDS011;35069;47.906;1.892;2023-02-12T09:38:27;26.42;;;16.65;;
49237;SDS011;35069;47.906;1.892;2023-02-12T09:46:39;33.00;;;17.35;;
49237;SDS011;35069;47.906;1.892;2023-02-12T09:52:08;27.30;;;16.02;;
49237;SDS011;35069;47.906;1.892;2023-02-12T09:54:43;33.05;;;18.00;;
49237;SDS011;35069;47.906;1.892;2023-02-12T09:57:29;29.55;;;17.42;;
49237;SDS011;35069;47.906;1.892;2023-02-12T10:02:35;28.55;;;16.23;;
49237;SDS011;35069;47.906;1.892;2023-02-12T10:05:04;33.85;;;19.17;;
49237;SDS011;35069;47.906;1.892;2023-02-12T10:07:35;29.42;;;17.00;;
49237;SDS011;35069;47.906;1.892;2023-02-12T10:27:30;35.33;;;18.25;;
49237;SDS011;35069;47.906;1.892;2023-02-12T10:30:02;32.65;;;17.92;;
49237;SDS011;35069;47.906;1.892;2023-02-12T10:32:38;32.83;;;18.98;;
49237;SDS011;35069;47.906;1.892;2023-02-12T10:35:13;33.67;;;18.10;;
49237;SDS011;35069;47.906;1.892;2023-02-12T10:37:48;35.95;;;19.00;;
49237;SDS011;35069;47.906;1.892;2023-02-12T10:40:25;34.60;;;20.05;;
49237;SDS011;35069;47.906;1.892;2023-02-12T10:42:54;31.90;;;18.15;;
49237;SDS011;35069;47.906;1.892;2023-02-12T10:45:29;30.20;;;17.40;;
49237;SDS011;35069;47.906;1.892;2023-02-12T10:48:04;29.80;;;16.98;;
49237;SDS011;35069;47.906;1.892;2023-02-12T10:53:36;29.02;;;17.73;;
49237;SDS011;35069;47.906;1.892;2023-02-12T11:03:58;27.15;;;16.33;;
49237;SDS011;35069;47.906;1.892;2023-02-12T11:06:25;28.77;;;17.17;;
49237;SDS011;35069;47.906;1.892;2023-02-12T11:08:53;34.58;;;19.55;;
49237;SDS011;35069;47.906;1.892;2023-02-12T11:11:20;32.20;;;18.60;;
49237;SDS011;35069;47.906;1.892;2023-02-12T11:18:57;24.60;;;15.80;;
49237;SDS011;35069;47.906;1.892;2023-02-12T11:21:30;27.73;;;17.33;;
49237;SDS011;35069;47.906;1.892;2023-02-12T11:24:19;30.33;;;16.40;;
49237;SDS011;35069;47.906;1.892;2023-02-12T11:26:46;30.20;;;18.00;;
49237;SDS011;35069;47.906;1.892;2023-02-12T11:29:16;36.65;;;18.15;;
49237;SDS011;35069;47.906;1.892;2023-02-12T11:34:24;33.45;;;19.05;;
49237;SDS011;35069;47.906;1.892;2023-02-12T11:36:53;26.92;;;16.60;;
49237;SDS011;35069;47.906;1.892;2023-02-12T11:39:37;24.20;;;16.13;;
49237;SDS011;35069;47.906;1.892;2023-02-12T11:42:04;22.15;;;14.75;;
49237;SDS011;35069;47.906;1.892;2023-02-12T11:44:40;25.58;;;15.77;;
49237;SDS011;35069;47.906;1.892;2023-02-12T11:47:08;29.88;;;15.20;;
49237;SDS011;35069;47.906;1.892;2023-02-12T11:49:42;22.35;;;15.32;;
49237;SDS011;35069;47.906;1.892;2023-02-12T11:52:18;22.15;;;14.93;;
49237;SDS011;35069;47.906;1.892;2023-02-12T11:54:56;27.40;;;16.53;;
49237;SDS011;35069;47.906;1.892;2023-02-12T12:02:37;21.92;;;14.02;;
49237;SDS011;35069;47.906;1.892;2023-02-12T12:05:08;23.27;;;14.55;;
49237;SDS011;35069;47.906;1.892;2023-02-12T12:10:41;20.58;;;13.68;;
49237;SDS011;35069;47.906;1.892;2023-02-12T12:13:27;20.02;;;13.30;;
49237;SDS011;35069;47.906;1.892;2023-02-12T12:16:18;22.83;;;14.35;;
49237;SDS011;35069;47.906;1.892;2023-02-12T12:19:20;21.10;;;14.27;;
49237;SDS011;35069;47.906;1.892;2023-02-12T12:24:59;22.35;;;13.80;;
49237;SDS011;35069;47.906;1.892;2023-02-12T12:33:11;15.93;;;12.00;;
49237;SDS011;35069;47.906;1.892;2023-02-12T12:35:46;17.83;;;11.60;;
49237;SDS011;35069;47.906;1.892;2023-02-12T12:57:16;15.95;;;11.45;;
49237;SDS011;35069;47.906;1.892;2023-02-12T13:10:59;17.63;;;10.63;;
49237;SDS011;35069;47.906;1.892;2023-02-12T13:13:37;18.73;;;10.88;;
49237;SDS011;35069;47.906;1.892;2023-02-12T13:18:41;18.50;;;12.30;;
49237;SDS011;35069;47.906;1.892;2023-02-12T13:24:02;20.45;;;11.18;;
49237;SDS011;35069;47.906;1.892;2023-02-12T13:26:46;23.58;;;12.80;;
49237;SDS011;35069;47.906;1.892;2023-02-12T13:32:01;22.95;;;13.13;;
49237;SDS011;35069;47.906;1.892;2023-02-12T13:34:28;17.08;;;11.70;;
49237;SDS011;35069;47.906;1.892;2023-02-12T13:36:56;19.58;;;11.82;;
49237;SDS011;35069;47.906;1.892;2023-02-12T13:39:34;23.52;;;12.75;;
49237;SDS011;35069;47.906;1.892;2023-02-12T13:55:23;18.08;;;12.05;;
49237;SDS011;35069;47.906;1.892;2023-02-12T14:03:35;22.60;;;11.98;;
49237;SDS011;35069;47.906;1.892;2023-02-12T14:06:36;22.48;;;12.82;;
49237;SDS011;35069;47.906;1.892;2023-02-12T14:09:09;20.90;;;12.50;;
49237;SDS011;35069;47.906;1.892;2023-02-12T14:11:45;23.80;;;11.68;;
49237;SDS011;35069;47.906;1.892;2023-02-12T14:14:15;16.23;;;11.63;;
49237;SDS011;35069;47.906;1.892;2023-02-12T14:16:52;21.77;;;12.32;;
49237;SDS011;35069;47.906;1.892;2023-02-12T14:24:52;19.63;;;11.52;;
49237;SDS011;35069;47.906;1.892;2023-02-12T14:27:24;21.23;;;12.70;;
49237;SDS011;35069;47.906;1.892;2023-02-12T14:37:58;19.15;;;10.68;;
49237;SDS011;35069;47.906;1.892;2023-02-12T14:43:23;19.75;;;12.07;;
49237;SDS011;35069;47.906;1.892;2023-02-12T14:45:51;19.48;;;11.50;;
49237;SDS011;35069;47.906;1.892;2023-02-12T14:51:02;20.08;;;10.60;;
49237;SDS011;35069;47.906;1.892;2023-02-12T14:53:30;18.50;;;11.75;;
49237;SDS011;35069;47.906;1.892;2023-02-12T14:55:59;19.55;;;10.95;;
49237;SDS011;35069;47.906;1.892;2023-02-12T14:58:26;19.77;;;11.68;;
49237;SDS011;35069;47.906;1.892;2023-02-12T15:00:55;20.35;;;10.57;;
49237;SDS011;35069;47.906;1.892;2023-02-12T15:03:41;19.15;;;10.60;;
49237;SDS011;35069;47.906;1.892;2023-02-12T15:06:16;18.80;;;10.48;;
49237;SDS011;35069;47.906;1.892;2023-02-12T15:14:04;14.52;;;9.90;;
49237;SDS011;35069;47.906;1.892;2023-02-12T15:16:43;17.98;;;9.80;;
49237;SDS011;35069;47.906;1.892;2023-02-12T15:20:04;16.70;;;10.43;;
49237;SDS011;35069;47.906;1.892;2023-02-12T15:22:26;16.63;;;10.35;;
49237;SDS011;35069;47.906;1.892;2023-02-12T15:27:56;19.23;;;10.30;;
49237;SDS011;35069;47.906;1.892;2023-02-12T15:30:27;14.15;;;9.50;;
49237;SDS011;35069;47.906;1.892;2023-02-12T15:37:52;17.88;;;10.35;;
49237;SDS011;35069;47.906;1.892;2023-02-12T15:40:18;17.23;;;9.85;;
49237;SDS011;35069;47.906;1.892;2023-02-12T15:42:55;17.00;;;9.52;;
49237;SDS011;35069;47.906;1.892;2023-02-12T15:45:26;19.98;;;10.93;;
49237;SDS011;35069;47.906;1.892;2023-02-12T15:50:33;15.82;;;8.93;;
49237;SDS011;35069;47.906;1.892;2023-02-12T15:53:09;15.07;;;10.05;;
49237;SDS011;35069;47.906;1.892;2023-02-12T15:55:36;14.82;;;8.73;;
49237;SDS011;35069;47.906;1.892;2023-02-12T15:58:13;13.48;;;8.63;;
49237;SDS011;35069;47.906;1.892;2023-02-12T16:00:44;13.98;;;9.50;;
49237;SDS011;35069;47.906;1.892;2023-02-12T16:05:50;12.63;;;8.05;;
49237;SDS011;35069;47.906;1.892;2023-02-12T16:08:19;13.70;;;8.20;;
49237;SDS011;35069;47.906;1.892;2023-02-12T16:10:46;12.73;;;8.98;;
49237;SDS011;35069;47.906;1.892;2023-02-12T16:13:15;16.67;;;9.88;;
49237;SDS011;35069;47.906;1.892;2023-02-12T16:15:44;13.23;;;8.48;;
49237;SDS011;35069;47.906;1.892;2023-02-12T16:18:21;15.45;;;8.93;;
49237;SDS011;35069;47.906;1.892;2023-02-12T16:20:48;15.82;;;9.07;;
49237;SDS011;35069;47.906;1.892;2023-02-12T16:23:25;17.63;;;9.43;;
49237;SDS011;35069;47.906;1.892;2023-02-12T16:25:54;15.27;;;8.40;;
49237;SDS011;35069;47.906;1.892;2023-02-12T16:28:25;12.07;;;8.43;;
49237;SDS011;35069;47.906;1.892;2023-02-12T16:30:56;14.43;;;9.40;;
49237;SDS011;35069;47.906;1.892;2023-02-12T16:36:07;11.65;;;8.52;;
49237;SDS011;35069;47.906;1.892;2023-02-12T16:38:57;11.10;;;8.05;;
49237;SDS011;35069;47.906;1.892;2023-02-12T16:41:29;15.30;;;8.10;;
49237;SDS011;35069;47.906;1.892;2023-02-12T16:46:26;14.70;;;8.52;;
49237;SDS011;35069;47.906;1.892;2023-02-12T16:48:54;13.20;;;8.65;;
49237;SDS011;35069;47.906;1.892;2023-02-12T16:51:30;15.88;;;8.23;;
49237;SDS011;35069;47.906;1.892;2023-02-12T16:54:01;16.77;;;9.50;;
49237;SDS011;35069;47.906;1.892;2023-02-12T16:56:34;19.05;;;11.40;;
49237;SDS011;35069;47.906;1.892;2023-02-12T16:59:04;15.73;;;9.93;;
49237;SDS011;35069;47.906;1.892;2023-02-12T17:01:31;18.13;;;9.75;;
49237;SDS011;35069;47.906;1.892;2023-02-12T17:03:59;18.67;;;10.15;;
49237;SDS011;35069;47.906;1.892;2023-02-12T17:06:29;14.13;;;9.68;;
49237;SDS011;35069;47.906;1.892;2023-02-12T17:08:55;16.33;;;8.90;;
49237;SDS011;35069;47.906;1.892;2023-02-12T17:11:22;13.80;;;9.25;;
49237;SDS011;35069;47.906;1.892;2023-02-12T17:13:50;15.18;;;10.00;;
49237;SDS011;35069;47.906;1.892;2023-02-12T17:16:17;16.52;;;10.15;;
49237;SDS011;35069;47.906;1.892;2023-02-12T17:18:43;15.95;;;10.13;;
49237;SDS011;35069;47.906;1.892;2023-02-12T17:21:28;17.27;;;10.05;;
49237;SDS011;35069;47.906;1.892;2023-02-12T17:23:56;15.00;;;10.57;;
49237;SDS011;35069;47.906;1.892;2023-02-12T17:26:22;16.20;;;10.70;;
49237;SDS011;35069;47.906;1.892;2023-02-12T17:28:48;13.75;;;9.70;;
49237;SDS011;35069;47.906;1.892;2023-02-12T17:31:14;15.30;;;9.90;;
49237;SDS011;35069;47.906;1.892;2023-02-12T17:33:39;19.73;;;9.70;;
49237;SDS011;35069;47.906;1.892;2023-02-12T17:36:05;12.68;;;8.85;;
49237;SDS011;35069;47.906;1.892;2023-02-12T17:38:31;13.60;;;9.25;;
49237;SDS011;35069;47.906;1.892;2023-02-12T17:40:57;13.10;;;8.57;;
49237;SDS011;35069;47.906;1.892;2023-02-12T17:43:22;14.38;;;9.57;;
49237;SDS011;35069;47.906;1.892;2023-02-12T17:45:48;14.38;;;9.07;;
49237;SDS011;35069;47.906;1.892;2023-02-12T17:48:14;12.68;;;9.30;;
49237;SDS011;35069;47.906;1.892;2023-02-12T17:50:41;12.45;;;8.40;;
49237;SDS011;35069;47.906;1.892;2023-02-12T17:53:08;13.60;;;8.77;;
49237;SDS011;35069;47.906;1.892;2023-02-12T17:55:38;17.30;;;10.27;;
49237;SDS011;35069;47.906;1.892;2023-02-12T17:58:04;13.10;;;9.18;;
49237;SDS011;35069;47.906;1.892;2023-02-12T18:00:30;12.65;;;8.20;;
49237;SDS011;35069;47.906;1.892;2023-02-12T18:02:56;12.98;;;8.68;;
49237;SDS011;35069;47.906;1.892;2023-02-12T18:05:22;12.98;;;9.27;;
49237;SDS011;35069;47.906;1.892;2023-02-12T18:07:48;11.90;;;7.40;;
49237;SDS011;35069;47.906;1.892;2023-02-12T18:10:13;11.55;;;7.18;;
49237;SDS011;35069;47.906;1.892;2023-02-12T18:12:39;10.32;;;7.50;;
49237;SDS011;35069;47.906;1.892;2023-02-12T18:15:05;11.00;;;7.57;;
49237;SDS011;35069;47.906;1.892;2023-02-12T18:17:32;13.57;;;8.38;;
49237;SDS011;35069;47.906;1.892;2023-02-12T18:19:59;10.88;;;7.15;;